Joliette, North Dakota
Current Conditions -  °F | °C
As of 7:15 AM on Friday 28 Nov 2014 (Local Time) from K2C8 Reporting Station
Light Snow Light Snow  
Wind Chill:   Ceiling: 1000
Heat Index: 10°   Visibility: 4mi
Dew Point:   Wind: 5mph
Humidity: 85%   Direction: 90°E
Pressure: 30"   Gusts: NA
Location:  48.8466°N, 97.3026°W
Report Text: K2C8 281315Z AUTO 09004KT 4SM -SN OVC010 M12/M14 A3000 RMK AO2
Loading
Personal Weather Stations






























Interactive Weather Map New forecast layout! Learn more

10-Day Weather Forecast

Advertisements
Track Severe Weather on mobile